createdAt,value
2019-01-14T00:06:10.162Z,93515.96
2019-01-14T00:09:10.468Z,93497.92
2019-01-14T00:12:15.136Z,93499.77
2019-01-14T00:15:39.497Z,93498.67
2019-01-14T00:19:03.573Z,93492.02
2019-01-14T00:22:27.607Z,93486.17
2019-01-14T00:29:20.652Z,93479.91
2019-01-14T00:36:17.549Z,93466.64
2019-01-14T00:39:39.861Z,93475.63
2019-01-14T00:42:57.558Z,93478.16
2019-01-14T00:50:25.600Z,93454.51
2019-01-14T00:54:08.904Z,93474.77
2019-01-14T00:57:33.189Z,93475.63
2019-01-14T01:00:57.215Z,93504.40
2019-01-14T01:04:01.870Z,93514.53
2019-01-14T01:07:45.262Z,93515.88
2019-01-14T01:14:52.231Z,93536.75
2019-01-14T01:18:16.374Z,93541.12
2019-01-14T01:21:59.526Z,93546.64
2019-01-14T01:25:23.604Z,93558.59
2019-01-14T01:29:06.778Z,93563.88
2019-01-14T01:32:30.936Z,93560.81
2019-01-14T01:39:19.901Z,93583.33
2019-01-14T01:42:36.508Z,93570.53
2019-01-14T01:46:19.516Z,93591.69
2019-01-14T01:53:13.895Z,93593.44
2019-01-14T01:56:56.893Z,93607.09
2019-01-14T02:03:52.130Z,93619.97
2019-01-14T02:06:57.018Z,93627.76
2019-01-14T02:10:21.675Z,93624.14
2019-01-14T02:21:06.040Z,93644.65
2019-01-14T02:24:30.314Z,93664.12
2019-01-14T02:27:54.266Z,93669.13
2019-01-14T02:31:18.277Z,93682.39
2019-01-14T02:34:42.596Z,93669.13
2019-01-14T02:38:06.518Z,93676.92
2019-01-14T02:41:23.370Z,93679.06
2019-01-14T02:44:47.343Z,93695.11
2019-01-14T02:48:11.301Z,93689.01
2019-01-14T02:51:35.272Z,93692.87
2019-01-14T02:54:59.236Z,93699.72
2019-01-14T02:58:42.223Z,93700.73
2019-01-14T03:02:25.225Z,93697.34
2019-01-14T03:05:49.189Z,93693.70
2019-01-14T03:12:44.268Z,93714.73
2019-01-14T03:16:08.234Z,93716.67
2019-01-14T03:19:32.201Z,93716.28
2019-01-14T03:22:56.522Z,93716.67
2019-01-14T03:26:20.492Z,93727.98
2019-01-14T03:29:44.463Z,93733.30
2019-01-14T03:33:08.417Z,93740.16
2019-01-14T03:36:32.387Z,93749.03
2019-01-14T03:39:56.646Z,93744.88
2019-01-14T03:43:20.926Z,93756.82
2019-01-14T03:46:44.888Z,93758.28
2019-01-14T03:50:29.651Z,93765.69
2019-01-14T03:53:53.610Z,93769.68
2019-01-14T03:57:17.572Z,93781.31
2019-01-14T04:04:31.796Z,93792.27
2019-01-14T04:08:15.047Z,93790.10
2019-01-14T04:11:58.036Z,93796.89
2019-01-14T04:15:22.280Z,93787.00
2019-01-14T04:22:29.486Z,93805.84
2019-01-14T04:25:53.453Z,93806.97
2019-01-14T04:29:17.660Z,93809.75
2019-01-14T04:32:41.695Z,93816.53
2019-01-14T04:36:05.657Z,93818.16
2019-01-14T04:43:06.629Z,93829.27
2019-01-14T04:46:49.865Z,93843.98
2019-01-14T04:50:33.151Z,93841.83
2019-01-14T04:53:58.266Z,93844.45
2019-01-14T04:57:22.230Z,93855.55
2019-01-14T05:00:46.223Z,93856.72
2019-01-14T05:04:10.361Z,93859.88
2019-01-14T05:07:53.423Z,93860.02
2019-01-14T05:11:17.671Z,93856.95
2019-01-14T05:14:41.640Z,93861.95
2019-01-14T05:18:05.673Z,93867.88
2019-01-14T05:21:29.689Z,93869.52
2019-01-14T05:24:53.924Z,93884.86
2019-01-14T05:28:17.882Z,93889.08
2019-01-14T05:31:22.737Z,93890.36
2019-01-14T05:34:27.361Z,93887.09
2019-01-14T05:37:51.332Z,93878.16
2019-01-14T05:41:08.671Z,93884.91
2019-01-14T05:44:32.640Z,93893.64
2019-01-14T05:47:56.598Z,93893.91
2019-01-14T05:51:20.804Z,93892.00
2019-01-14T05:54:44.774Z,93901.17
2019-01-14T05:58:08.779Z,93897.30
2019-01-14T06:01:32.741Z,93894.86
2019-01-14T06:04:57.025Z,93901.62
2019-01-14T06:08:21.003Z,93899.68
2019-01-14T06:12:04.000Z,93902.45
2019-01-14T06:15:47.134Z,93897.27
2019-01-14T06:18:51.806Z,93901.43
2019-01-14T06:21:56.418Z,93915.58
2019-01-14T06:25:20.400Z,93921.26
2019-01-14T06:28:44.368Z,93918.55
2019-01-14T06:31:48.990Z,93920.48
2019-01-14T06:38:45.157Z,93932.42
2019-01-14T06:41:49.724Z,93947.61
2019-01-14T06:44:54.353Z,93944.59
2019-01-14T06:47:59.241Z,93945.53
2019-01-14T06:51:04.206Z,93956.25
2019-01-14T06:54:09.122Z,93968.57
2019-01-14T06:57:14.051Z,93963.39
2019-01-14T07:00:22.861Z,93961.14
2019-01-14T07:03:27.935Z,93974.30
2019-01-14T07:06:32.556Z,93982.92
2019-01-14T07:09:37.479Z,93991.91
2019-01-14T07:12:42.535Z,94000.30
2019-01-14T07:15:47.176Z,94005.73
2019-01-14T07:18:52.089Z,94010.48
2019-01-14T07:21:57.322Z,94015.00
2019-01-14T07:25:01.957Z,94015.84
2019-01-14T07:28:06.889Z,94024.95
2019-01-14T07:31:13.040Z,94023.78
2019-01-14T07:34:17.907Z,94017.63
2019-01-14T07:37:22.546Z,94024.13
2019-01-14T07:40:27.283Z,94031.50
2019-01-14T07:43:31.901Z,94030.44
2019-01-14T07:46:36.927Z,94043.34
2019-01-14T07:49:41.544Z,94046.16
2019-01-14T07:52:46.270Z,94048.59
2019-01-14T07:55:51.375Z,94059.06
2019-01-14T07:58:56.367Z,94066.05
2019-01-14T08:02:01.337Z,94071.72
2019-01-14T08:05:06.843Z,94076.34
2019-01-14T08:08:14.156Z,94084.87
2019-01-14T08:11:18.168Z,94088.95
2019-01-14T08:14:22.878Z,94100.65
2019-01-14T08:17:29.248Z,94097.17
2019-01-14T08:20:34.003Z,94096.34
2019-01-14T08:23:39.244Z,94107.66
2019-01-14T08:26:43.874Z,94107.00
2019-01-14T08:29:49.029Z,94114.27
2019-01-14T08:32:54.176Z,94122.05
2019-01-14T08:35:59.816Z,94125.96
2019-01-14T08:39:07.578Z,94127.86
2019-01-14T08:42:13.096Z,94113.39
2019-01-14T08:45:22.623Z,94124.65
2019-01-14T08:48:25.678Z,94129.76
2019-01-14T08:51:30.345Z,94136.90
2019-01-14T08:54:37.988Z,94136.66
2019-01-14T08:57:42.824Z,94136.47
2019-01-14T09:00:47.810Z,94130.88
2019-01-14T09:03:53.101Z,94134.23
2019-01-14T09:06:58.134Z,94151.08
2019-01-14T09:10:03.283Z,94146.67
2019-01-14T09:13:07.966Z,94157.59
2019-01-14T09:16:12.654Z,94166.87
2019-01-14T09:19:18.004Z,94165.53
2019-01-14T09:22:22.696Z,94168.94
2019-01-14T09:25:27.659Z,94161.76
2019-01-14T09:28:32.638Z,94168.98
2019-01-14T09:31:37.624Z,94168.50
2019-01-14T09:34:42.414Z,94170.20
2019-01-14T09:37:47.286Z,94171.67
2019-01-14T09:40:52.003Z,94181.47
2019-01-14T09:43:56.786Z,94178.13
2019-01-14T09:47:01.760Z,94182.73
2019-01-14T09:50:10.942Z,94181.42
2019-01-14T09:53:15.984Z,94183.70
2019-01-14T09:56:20.631Z,94182.92
2019-01-14T09:59:25.549Z,94178.45
2019-01-14T10:02:30.182Z,94177.81
2019-01-14T10:05:34.975Z,94176.65
2019-01-14T10:08:43.211Z,94185.75
2019-01-14T10:11:46.214Z,94184.38
2019-01-14T10:14:50.865Z,94173.17
2019-01-14T10:18:00.436Z,94179.20
2019-01-14T10:21:07.024Z,94175.69
2019-01-14T10:24:12.011Z,94178.31
2019-01-14T10:27:16.631Z,94177.64
2019-01-14T10:30:21.489Z,94166.86
2019-01-14T10:33:26.410Z,94164.70
2019-01-14T10:36:31.338Z,94163.45
2019-01-14T10:39:36.200Z,94165.98
2019-01-14T10:42:40.856Z,94170.59
2019-01-14T10:45:45.490Z,94171.42
2019-01-14T10:48:50.239Z,94176.02
2019-01-14T10:51:55.020Z,94170.67
2019-01-14T10:55:00.270Z,94165.30
2019-01-14T10:58:05.245Z,94161.95
2019-01-14T11:01:11.792Z,94169.95
2019-01-14T11:04:16.673Z,94164.56
2019-01-14T11:07:21.305Z,94161.65
2019-01-14T11:10:25.964Z,94162.33
2019-01-14T11:13:30.713Z,94164.84
2019-01-14T11:16:35.347Z,94167.11
2019-01-14T11:19:41.611Z,94163.95
2019-01-14T11:22:46.371Z,94163.59
2019-01-14T11:25:51.121Z,94166.16
2019-01-14T11:28:56.091Z,94157.94
2019-01-14T11:32:00.692Z,94162.59
2019-01-14T11:35:08.111Z,94163.36
2019-01-14T11:38:40.364Z,94159.70
2019-01-14T11:41:45.200Z,94162.45
2019-01-14T11:44:51.251Z,94160.66
2019-01-14T11:47:57.259Z,94152.34
2019-01-14T11:51:01.914Z,94152.31
2019-01-14T11:54:06.547Z,94149.02
2019-01-14T11:57:11.481Z,94148.43
2019-01-14T12:00:25.867Z,94140.97
2019-01-14T12:03:30.475Z,94134.59
2019-01-14T12:06:35.499Z,94132.55
2019-01-14T12:09:40.389Z,94133.33
2019-01-14T12:12:45.414Z,94129.69
2019-01-14T12:15:50.352Z,94126.88
2019-01-14T12:18:56.538Z,94125.17
2019-01-14T12:22:01.171Z,94131.05
2019-01-14T12:25:08.749Z,94130.98
2019-01-14T12:28:13.377Z,94122.93
2019-01-14T12:31:18.286Z,94127.55
2019-01-14T12:34:24.650Z,94124.34
2019-01-14T12:37:28.931Z,94128.62
2019-01-14T12:40:45.860Z,94126.19
2019-01-14T12:43:50.510Z,94128.12
2019-01-14T12:47:14.767Z,94116.52
2019-01-14T12:50:38.752Z,94117.34
2019-01-14T12:54:21.835Z,94123.66
2019-01-14T12:57:45.869Z,94124.33
2019-01-14T13:01:09.845Z,94121.95
2019-01-14T13:04:14.738Z,94123.79
2019-01-14T13:07:19.345Z,94125.70
2019-01-14T13:10:23.989Z,94119.48
2019-01-14T13:14:07.245Z,94118.77
2019-01-14T13:17:50.751Z,94116.17
2019-01-14T13:24:44.167Z,94129.18
2019-01-14T13:28:08.138Z,94149.23
2019-01-14T13:31:13.025Z,94140.07
2019-01-14T13:34:18.398Z,94147.63
2019-01-14T13:37:23.391Z,94140.24
2019-01-14T13:40:28.110Z,94136.47
2019-01-14T13:50:54.291Z,94149.95
2019-01-14T13:53:59.498Z,94152.27
2019-01-14T13:57:04.492Z,94151.84
2019-01-14T14:00:19.302Z,94156.22
2019-01-14T14:03:24.187Z,94153.94
2019-01-14T14:06:28.848Z,94157.40
2019-01-14T14:09:33.459Z,94164.77
2019-01-14T14:12:38.321Z,94175.96
2019-01-14T14:16:02.592Z,94190.98
2019-01-14T14:19:26.563Z,94200.32
2019-01-14T14:22:50.778Z,94215.16
2019-01-14T14:26:14.962Z,94237.66
2019-01-14T14:29:19.829Z,94246.23
2019-01-14T14:32:24.455Z,94260.69
2019-01-14T14:35:29.073Z,94277.16
2019-01-14T14:42:15.630Z,94292.35
2019-01-14T14:45:39.856Z,94300.20
2019-01-14T14:48:44.800Z,94315.08
2019-01-14T14:55:32.594Z,94309.60
2019-01-14T14:58:37.220Z,94309.02
2019-01-14T15:01:42.095Z,94318.95
2019-01-14T15:04:47.006Z,94304.81
2019-01-14T15:07:51.697Z,94313.67
2019-01-14T15:10:56.579Z,94315.70
2019-01-14T15:14:01.191Z,94333.27
2019-01-14T15:17:06.136Z,94347.30
2019-01-14T15:20:19.119Z,94355.40
2019-01-14T15:23:23.741Z,94346.78
2019-01-14T15:26:48.039Z,94324.66
2019-01-14T15:30:31.698Z,94337.36
2019-01-14T15:37:44.801Z,94359.31
2019-01-14T15:40:49.437Z,94374.21
2019-01-14T15:44:13.741Z,94391.19
2019-01-14T15:47:38.067Z,94393.02
2019-01-14T15:51:02.324Z,94405.81
2019-01-14T15:54:26.294Z,94419.39
2019-01-14T16:01:33.294Z,94424.39
2019-01-14T16:08:40.203Z,94441.14
2019-01-14T16:12:04.249Z,94449.77
2019-01-14T16:15:28.247Z,94461.26
2019-01-14T16:18:52.451Z,94465.11
2019-01-14T16:22:16.788Z,94484.72
2019-01-14T16:25:21.647Z,94501.95
2019-01-14T16:28:26.266Z,94500.66
2019-01-14T16:31:31.184Z,94523.11
2019-01-14T16:34:35.898Z,94526.25
2019-01-14T16:37:40.758Z,94536.70
2019-01-14T16:40:45.432Z,94546.88
2019-01-14T16:43:50.052Z,94555.50
2019-01-14T16:47:33.296Z,94560.20
2019-01-14T16:50:57.621Z,94563.06
2019-01-14T16:54:21.592Z,94580.78
2019-01-14T16:57:45.621Z,94579.80
2019-01-14T17:01:09.889Z,94593.38
2019-01-14T17:04:33.871Z,94602.78
2019-01-14T17:07:57.873Z,94611.36
2019-01-14T17:11:22.129Z,94624.42
2019-01-14T17:14:46.128Z,94641.92
2019-01-14T17:18:10.096Z,94648.77
2019-01-14T17:25:17.254Z,94667.63
2019-01-14T17:28:21.946Z,94679.69
2019-01-14T17:31:26.813Z,94680.53
2019-01-14T17:34:31.441Z,94686.84
2019-01-14T17:37:36.314Z,94685.05
2019-01-14T17:40:41.032Z,94692.37
2019-01-14T17:43:48.843Z,94696.32
2019-01-14T17:46:53.745Z,94705.98
2019-01-14T17:50:38.512Z,94713.59
2019-01-14T17:54:02.554Z,94720.93
2019-01-14T17:57:26.585Z,94713.88
2019-01-14T18:00:50.840Z,94717.34
2019-01-14T18:04:33.871Z,94722.00
2019-01-14T18:08:16.982Z,94719.66
2019-01-14T18:11:21.616Z,94722.98
2019-01-14T18:14:45.800Z,94732.58
2019-01-14T18:18:09.758Z,94736.20
2019-01-14T18:21:33.733Z,94742.42
2019-01-14T18:24:38.611Z,94746.94
2019-01-14T18:27:43.229Z,94757.64
2019-01-14T18:30:47.903Z,94770.44
2019-01-14T18:33:52.530Z,94773.11
2019-01-14T18:36:57.319Z,94783.52
2019-01-14T18:40:15.890Z,94786.85
2019-01-14T18:47:23.375Z,94790.83
2019-01-14T18:50:47.665Z,94801.27
2019-01-14T18:57:54.883Z,94810.39
2019-01-14T19:00:59.828Z,94819.98
2019-01-14T19:04:04.766Z,94811.11
2019-01-14T19:07:09.637Z,94814.77
2019-01-14T19:10:15.058Z,94814.30
2019-01-14T19:13:39.026Z,94817.41
2019-01-14T19:17:03.435Z,94820.25
2019-01-14T19:27:26.588Z,94846.31
2019-01-14T19:30:50.563Z,94841.08
2019-01-14T19:37:57.501Z,94843.17
2019-01-14T19:41:14.233Z,94842.94
2019-01-14T19:44:18.894Z,94841.90
2019-01-14T19:47:23.776Z,94856.55
2019-01-14T19:50:47.974Z,94852.87
2019-01-14T19:54:12.264Z,94863.84
2019-01-14T19:57:55.412Z,94867.23
2019-01-14T20:01:19.635Z,94869.06
2019-01-14T20:04:24.364Z,94873.53
2019-01-14T20:07:29.218Z,94876.38
2019-01-14T20:10:33.867Z,94873.50
2019-01-14T20:18:07.747Z,94876.90
2019-01-14T20:21:31.888Z,94883.69
2019-01-14T20:24:56.196Z,94891.00
2019-01-14T20:39:28.630Z,94890.22
2019-01-14T20:42:45.207Z,94893.36
2019-01-14T20:53:13.613Z,94904.83
2019-01-14T20:59:43.991Z,94900.38
2019-01-14T21:02:48.933Z,94909.52
2019-01-14T21:10:02.967Z,94906.39
2019-01-14T21:20:39.607Z,94916.34
2019-01-14T21:24:22.651Z,94912.19
2019-01-14T21:27:46.920Z,94908.74
2019-01-14T21:31:10.885Z,94913.73
2019-01-14T21:34:35.147Z,94920.52
2019-01-14T21:38:18.178Z,94911.64
2019-01-14T21:41:22.776Z,94914.02
2019-01-14T21:44:46.967Z,94908.53
2019-01-14T21:48:17.210Z,94911.92
2019-01-14T21:51:36.892Z,94925.48
2019-01-14T21:55:01.235Z,94937.80
2019-01-14T21:58:25.517Z,94946.17
2019-01-14T22:01:30.415Z,94957.14
2019-01-14T22:04:35.076Z,94960.02
2019-01-14T22:08:18.146Z,94968.89
2019-01-14T22:11:42.505Z,94969.14
2019-01-14T22:15:27.578Z,94982.46
2019-01-14T22:19:10.826Z,94992.64
2019-01-14T22:22:34.801Z,95001.80
2019-01-14T22:25:58.829Z,95005.95
2019-01-14T22:29:22.774Z,95010.92
2019-01-14T22:33:05.843Z,95008.55
2019-01-14T22:36:29.804Z,95013.02
2019-01-14T22:39:54.009Z,95017.18
2019-01-14T22:43:17.980Z,95022.41
2019-01-14T22:46:42.252Z,95024.74
2019-01-14T22:50:27.011Z,95026.33
2019-01-14T22:53:50.976Z,95032.58
2019-01-14T22:57:14.939Z,95029.19
2019-01-14T23:04:44.395Z,95034.69
2019-01-14T23:08:08.707Z,95033.11
2019-01-14T23:11:53.187Z,95038.85
2019-01-14T23:15:17.720Z,95038.86
2019-01-14T23:18:41.977Z,95045.37
2019-01-14T23:22:25.177Z,95054.23
2019-01-14T23:26:08.433Z,95055.83
2019-01-14T23:29:32.640Z,95061.84
2019-01-14T23:32:37.602Z,95066.78
2019-01-14T23:36:01.822Z,95064.41
2019-01-14T23:39:25.795Z,95070.14
2019-01-14T23:42:42.832Z,95064.13
2019-01-14T23:46:25.916Z,95065.72
2019-01-14T23:53:19.457Z,95086.56
2019-01-14T23:56:43.452Z,95089.70
